sensor_id;sensor_type;location;lat;lon;timestamp;P1;durP1;ratioP1;P2;durP2;ratioP2
73869;SDS011;64924;42.140;24.762;2023-04-16T00:00:05;6.78;;;1.60;;
73869;SDS011;64924;42.140;24.762;2023-04-16T00:02:32;6.85;;;1.95;;
73869;SDS011;64924;42.140;24.762;2023-04-16T00:04:58;7.32;;;2.15;;
73869;SDS011;64924;42.140;24.762;2023-04-16T00:07:23;5.47;;;2.00;;
73869;SDS011;64924;42.140;24.762;2023-04-16T00:09:49;5.25;;;1.75;;
73869;SDS011;64924;42.140;24.762;2023-04-16T00:12:15;6.63;;;2.25;;
73869;SDS011;64924;42.140;24.762;2023-04-16T00:14:40;9.68;;;2.03;;
73869;SDS011;64924;42.140;24.762;2023-04-16T00:17:07;8.82;;;1.85;;
73869;SDS011;64924;42.140;24.762;2023-04-16T00:19:33;7.25;;;2.47;;
73869;SDS011;64924;42.140;24.762;2023-04-16T00:21:59;9.05;;;2.33;;
73869;SDS011;64924;42.140;24.762;2023-04-16T00:24:25;8.25;;;1.90;;
73869;SDS011;64924;42.140;24.762;2023-04-16T00:26:50;5.22;;;1.85;;
73869;SDS011;64924;42.140;24.762;2023-04-16T00:29:15;9.25;;;1.95;;
73869;SDS011;64924;42.140;24.762;2023-04-16T00:31:41;6.25;;;2.30;;
73869;SDS011;64924;42.140;24.762;2023-04-16T00:34:06;7.38;;;2.78;;
73869;SDS011;64924;42.140;24.762;2023-04-16T00:36:32;8.38;;;2.15;;
73869;SDS011;64924;42.140;24.762;2023-04-16T00:38:57;5.20;;;1.77;;
73869;SDS011;64924;42.140;24.762;2023-04-16T00:41:23;3.33;;;1.55;;
73869;SDS011;64924;42.140;24.762;2023-04-16T00:43:48;5.07;;;1.90;;
73869;SDS011;64924;42.140;24.762;2023-04-16T00:46:14;7.28;;;2.10;;
73869;SDS011;64924;42.140;24.762;2023-04-16T00:48:41;4.57;;;1.50;;
73869;SDS011;64924;42.140;24.762;2023-04-16T00:51:08;8.85;;;1.92;;
73869;SDS011;64924;42.140;24.762;2023-04-16T00:53:34;7.75;;;2.05;;
73869;SDS011;64924;42.140;24.762;2023-04-16T00:56:04;8.45;;;2.05;;
73869;SDS011;64924;42.140;24.762;2023-04-16T00:58:31;5.22;;;2.05;;
73869;SDS011;64924;42.140;24.762;2023-04-16T01:00:58;6.45;;;2.28;;
73869;SDS011;64924;42.140;24.762;2023-04-16T01:03:24;11.10;;;2.67;;
73869;SDS011;64924;42.140;24.762;2023-04-16T01:05:58;3.97;;;2.10;;
73869;SDS011;64924;42.140;24.762;2023-04-16T01:08:25;7.38;;;1.95;;
73869;SDS011;64924;42.140;24.762;2023-04-16T01:10:50;8.77;;;2.15;;
73869;SDS011;64924;42.140;24.762;2023-04-16T01:13:16;6.70;;;1.85;;
73869;SDS011;64924;42.140;24.762;2023-04-16T01:15:41;8.32;;;1.98;;
73869;SDS011;64924;42.140;24.762;2023-04-16T01:18:13;9.25;;;2.97;;
73869;SDS011;64924;42.140;24.762;2023-04-16T01:20:42;9.32;;;2.63;;
73869;SDS011;64924;42.140;24.762;2023-04-16T01:23:08;8.00;;;1.92;;
73869;SDS011;64924;42.140;24.762;2023-04-16T01:25:35;5.80;;;1.98;;
73869;SDS011;64924;42.140;24.762;2023-04-16T01:28:01;6.68;;;1.73;;
73869;SDS011;64924;42.140;24.762;2023-04-16T01:30:26;7.82;;;1.95;;
73869;SDS011;64924;42.140;24.762;2023-04-16T01:32:52;7.68;;;1.83;;
73869;SDS011;64924;42.140;24.762;2023-04-16T01:35:17;6.03;;;2.10;;
73869;SDS011;64924;42.140;24.762;2023-04-16T01:37:43;8.27;;;2.13;;
73869;SDS011;64924;42.140;24.762;2023-04-16T01:40:09;5.57;;;1.90;;
73869;SDS011;64924;42.140;24.762;2023-04-16T01:42:35;7.78;;;1.83;;
73869;SDS011;64924;42.140;24.762;2023-04-16T01:45:01;5.00;;;1.88;;
73869;SDS011;64924;42.140;24.762;2023-04-16T01:47:26;8.05;;;2.60;;
73869;SDS011;64924;42.140;24.762;2023-04-16T01:49:52;7.35;;;2.67;;
73869;SDS011;64924;42.140;24.762;2023-04-16T01:52:17;10.93;;;2.58;;
73869;SDS011;64924;42.140;24.762;2023-04-16T01:54:43;7.38;;;2.40;;
73869;SDS011;64924;42.140;24.762;2023-04-16T01:57:08;7.78;;;2.53;;
73869;SDS011;64924;42.140;24.762;2023-04-16T01:59:34;5.80;;;2.30;;
73869;SDS011;64924;42.140;24.762;2023-04-16T02:02:01;6.80;;;2.45;;
73869;SDS011;64924;42.140;24.762;2023-04-16T02:04:35;7.68;;;2.83;;
73869;SDS011;64924;42.140;24.762;2023-04-16T02:07:10;7.22;;;3.28;;
73869;SDS011;64924;42.140;24.762;2023-04-16T02:09:36;7.95;;;2.72;;
73869;SDS011;64924;42.140;24.762;2023-04-16T02:12:03;7.57;;;2.50;;
73869;SDS011;64924;42.140;24.762;2023-04-16T02:14:29;5.63;;;2.28;;
73869;SDS011;64924;42.140;24.762;2023-04-16T02:16:55;9.65;;;2.65;;
73869;SDS011;64924;42.140;24.762;2023-04-16T02:19:21;8.48;;;2.50;;
73869;SDS011;64924;42.140;24.762;2023-04-16T02:21:46;6.63;;;2.53;;
73869;SDS011;64924;42.140;24.762;2023-04-16T02:24:13;8.90;;;2.72;;
73869;SDS011;64924;42.140;24.762;2023-04-16T02:26:39;6.10;;;2.45;;
73869;SDS011;64924;42.140;24.762;2023-04-16T02:29:04;7.20;;;3.47;;
73869;SDS011;64924;42.140;24.762;2023-04-16T02:31:30;6.30;;;2.85;;
73869;SDS011;64924;42.140;24.762;2023-04-16T02:33:56;10.15;;;3.00;;
73869;SDS011;64924;42.140;24.762;2023-04-16T02:36:22;7.20;;;2.60;;
73869;SDS011;64924;42.140;24.762;2023-04-16T02:38:47;9.20;;;2.72;;
73869;SDS011;64924;42.140;24.762;2023-04-16T02:41:13;8.95;;;2.95;;
73869;SDS011;64924;42.140;24.762;2023-04-16T02:43:38;7.45;;;2.83;;
73869;SDS011;64924;42.140;24.762;2023-04-16T02:46:04;6.72;;;2.80;;
73869;SDS011;64924;42.140;24.762;2023-04-16T02:48:29;7.43;;;2.45;;
73869;SDS011;64924;42.140;24.762;2023-04-16T02:50:55;6.32;;;2.78;;
73869;SDS011;64924;42.140;24.762;2023-04-16T02:53:20;11.35;;;2.63;;
73869;SDS011;64924;42.140;24.762;2023-04-16T02:55:52;6.35;;;2.90;;
73869;SDS011;64924;42.140;24.762;2023-04-16T02:58:19;10.10;;;2.85;;
73869;SDS011;64924;42.140;24.762;2023-04-16T03:00:46;8.23;;;3.03;;
73869;SDS011;64924;42.140;24.762;2023-04-16T03:03:12;8.85;;;3.10;;
73869;SDS011;64924;42.140;24.762;2023-04-16T03:05:37;7.65;;;2.40;;
73869;SDS011;64924;42.140;24.762;2023-04-16T03:08:03;15.65;;;3.53;;
73869;SDS011;64924;42.140;24.762;2023-04-16T03:10:28;6.25;;;3.00;;
73869;SDS011;64924;42.140;24.762;2023-04-16T03:12:54;6.38;;;3.45;;
73869;SDS011;64924;42.140;24.762;2023-04-16T03:15:20;9.35;;;3.03;;
73869;SDS011;64924;42.140;24.762;2023-04-16T03:17:45;8.77;;;3.10;;
73869;SDS011;64924;42.140;24.762;2023-04-16T03:20:11;9.45;;;3.70;;
73869;SDS011;64924;42.140;24.762;2023-04-16T03:22:37;7.18;;;3.05;;
73869;SDS011;64924;42.140;24.762;2023-04-16T03:25:03;9.25;;;3.45;;
73869;SDS011;64924;42.140;24.762;2023-04-16T03:27:29;10.77;;;4.38;;
73869;SDS011;64924;42.140;24.762;2023-04-16T03:29:55;8.27;;;4.10;;
73869;SDS011;64924;42.140;24.762;2023-04-16T03:32:20;10.70;;;3.78;;
73869;SDS011;64924;42.140;24.762;2023-04-16T03:34:46;7.82;;;3.10;;
73869;SDS011;64924;42.140;24.762;2023-04-16T03:37:11;10.02;;;3.35;;
73869;SDS011;64924;42.140;24.762;2023-04-16T03:39:37;11.18;;;3.75;;
73869;SDS011;64924;42.140;24.762;2023-04-16T03:42:02;6.68;;;3.33;;
73869;SDS011;64924;42.140;24.762;2023-04-16T03:44:28;8.05;;;4.13;;
73869;SDS011;64924;42.140;24.762;2023-04-16T03:46:54;8.30;;;3.30;;
73869;SDS011;64924;42.140;24.762;2023-04-16T03:49:19;7.90;;;3.25;;
73869;SDS011;64924;42.140;24.762;2023-04-16T03:51:45;7.93;;;3.30;;
73869;SDS011;64924;42.140;24.762;2023-04-16T03:54:11;11.45;;;3.58;;
73869;SDS011;64924;42.140;24.762;2023-04-16T03:56:38;7.55;;;3.30;;
73869;SDS011;64924;42.140;24.762;2023-04-16T03:59:04;10.35;;;3.40;;
73869;SDS011;64924;42.140;24.762;2023-04-16T04:01:30;9.20;;;4.10;;
73869;SDS011;64924;42.140;24.762;2023-04-16T04:03:55;10.82;;;4.57;;
73869;SDS011;64924;42.140;24.762;2023-04-16T04:06:21;8.63;;;3.80;;
73869;SDS011;64924;42.140;24.762;2023-04-16T04:08:46;10.50;;;3.78;;
73869;SDS011;64924;42.140;24.762;2023-04-16T04:11:12;16.83;;;4.07;;
73869;SDS011;64924;42.140;24.762;2023-04-16T04:13:37;8.85;;;3.80;;
73869;SDS011;64924;42.140;24.762;2023-04-16T04:16:03;8.75;;;4.18;;
73869;SDS011;64924;42.140;24.762;2023-04-16T04:18:29;8.63;;;3.65;;
73869;SDS011;64924;42.140;24.762;2023-04-16T04:20:55;10.98;;;4.78;;
73869;SDS011;64924;42.140;24.762;2023-04-16T04:23:21;11.10;;;5.63;;
73869;SDS011;64924;42.140;24.762;2023-04-16T04:25:46;12.80;;;6.38;;
73869;SDS011;64924;42.140;24.762;2023-04-16T04:28:12;11.00;;;6.25;;
73869;SDS011;64924;42.140;24.762;2023-04-16T04:30:37;16.35;;;6.40;;
73869;SDS011;64924;42.140;24.762;2023-04-16T04:33:02;10.70;;;5.47;;
73869;SDS011;64924;42.140;24.762;2023-04-16T04:35:28;11.70;;;5.63;;
73869;SDS011;64924;42.140;24.762;2023-04-16T04:37:53;13.73;;;5.28;;
73869;SDS011;64924;42.140;24.762;2023-04-16T04:40:19;10.00;;;5.35;;
73869;SDS011;64924;42.140;24.762;2023-04-16T04:42:45;11.82;;;6.10;;
73869;SDS011;64924;42.140;24.762;2023-04-16T04:45:10;17.70;;;5.85;;
73869;SDS011;64924;42.140;24.762;2023-04-16T04:47:36;12.50;;;4.80;;
73869;SDS011;64924;42.140;24.762;2023-04-16T04:50:01;10.70;;;4.93;;
73869;SDS011;64924;42.140;24.762;2023-04-16T04:52:27;9.73;;;5.00;;
73869;SDS011;64924;42.140;24.762;2023-04-16T04:54:52;7.57;;;4.32;;
73869;SDS011;64924;42.140;24.762;2023-04-16T04:57:18;14.20;;;4.90;;
73869;SDS011;64924;42.140;24.762;2023-04-16T04:59:43;11.55;;;4.40;;
73869;SDS011;64924;42.140;24.762;2023-04-16T05:02:09;8.73;;;4.15;;
73869;SDS011;64924;42.140;24.762;2023-04-16T05:04:34;8.55;;;3.75;;
73869;SDS011;64924;42.140;24.762;2023-04-16T05:07:00;10.95;;;4.25;;
73869;SDS011;64924;42.140;24.762;2023-04-16T05:09:26;9.52;;;4.50;;
73869;SDS011;64924;42.140;24.762;2023-04-16T05:11:51;11.27;;;4.20;;
73869;SDS011;64924;42.140;24.762;2023-04-16T05:14:17;11.63;;;4.30;;
73869;SDS011;64924;42.140;24.762;2023-04-16T05:16:42;9.80;;;4.40;;
73869;SDS011;64924;42.140;24.762;2023-04-16T05:19:08;10.32;;;3.92;;
73869;SDS011;64924;42.140;24.762;2023-04-16T05:21:33;11.77;;;4.68;;
73869;SDS011;64924;42.140;24.762;2023-04-16T05:23:59;11.45;;;4.38;;
73869;SDS011;64924;42.140;24.762;2023-04-16T05:26:24;13.23;;;4.40;;
73869;SDS011;64924;42.140;24.762;2023-04-16T05:28:50;9.73;;;4.82;;
73869;SDS011;64924;42.140;24.762;2023-04-16T05:31:15;11.60;;;4.53;;
73869;SDS011;64924;42.140;24.762;2023-04-16T05:33:41;9.88;;;4.68;;
73869;SDS011;64924;42.140;24.762;2023-04-16T05:36:06;12.75;;;5.40;;
73869;SDS011;64924;42.140;24.762;2023-04-16T05:38:32;10.43;;;4.53;;
73869;SDS011;64924;42.140;24.762;2023-04-16T05:40:57;12.55;;;4.30;;
73869;SDS011;64924;42.140;24.762;2023-04-16T05:43:23;11.00;;;4.78;;
73869;SDS011;64924;42.140;24.762;2023-04-16T05:45:49;8.63;;;4.05;;
73869;SDS011;64924;42.140;24.762;2023-04-16T05:48:14;9.27;;;4.82;;
73869;SDS011;64924;42.140;24.762;2023-04-16T05:50:40;8.15;;;4.07;;
73869;SDS011;64924;42.140;24.762;2023-04-16T05:53:06;11.40;;;4.65;;
73869;SDS011;64924;42.140;24.762;2023-04-16T05:55:33;13.70;;;4.25;;
73869;SDS011;64924;42.140;24.762;2023-04-16T05:58:00;9.38;;;4.05;;
73869;SDS011;64924;42.140;24.762;2023-04-16T06:00:28;6.97;;;2.85;;
73869;SDS011;64924;42.140;24.762;2023-04-16T06:02:54;8.35;;;2.90;;
73869;SDS011;64924;42.140;24.762;2023-04-16T06:05:20;5.20;;;2.42;;
73869;SDS011;64924;42.140;24.762;2023-04-16T06:07:45;7.93;;;3.05;;
73869;SDS011;64924;42.140;24.762;2023-04-16T06:10:11;11.10;;;3.45;;
73869;SDS011;64924;42.140;24.762;2023-04-16T06:12:36;9.32;;;3.45;;
73869;SDS011;64924;42.140;24.762;2023-04-16T06:15:02;8.40;;;2.88;;
73869;SDS011;64924;42.140;24.762;2023-04-16T06:17:28;8.55;;;3.47;;
73869;SDS011;64924;42.140;24.762;2023-04-16T06:19:54;6.97;;;3.00;;
73869;SDS011;64924;42.140;24.762;2023-04-16T06:22:19;9.60;;;3.25;;
73869;SDS011;64924;42.140;24.762;2023-04-16T06:24:45;7.55;;;3.33;;
73869;SDS011;64924;42.140;24.762;2023-04-16T06:27:10;5.30;;;2.65;;
73869;SDS011;64924;42.140;24.762;2023-04-16T06:29:36;9.15;;;3.38;;
73869;SDS011;64924;42.140;24.762;2023-04-16T06:32:01;12.07;;;3.10;;
73869;SDS011;64924;42.140;24.762;2023-04-16T06:34:27;7.90;;;3.20;;
73869;SDS011;64924;42.140;24.762;2023-04-16T06:36:53;9.73;;;3.22;;
73869;SDS011;64924;42.140;24.762;2023-04-16T06:39:19;7.55;;;3.20;;
73869;SDS011;64924;42.140;24.762;2023-04-16T06:41:46;8.93;;;3.30;;
73869;SDS011;64924;42.140;24.762;2023-04-16T06:44:12;12.45;;;3.97;;
73869;SDS011;64924;42.140;24.762;2023-04-16T06:46:38;6.90;;;3.60;;
73869;SDS011;64924;42.140;24.762;2023-04-16T06:49:04;7.53;;;3.83;;
73869;SDS011;64924;42.140;24.762;2023-04-16T06:51:29;6.07;;;2.90;;
73869;SDS011;64924;42.140;24.762;2023-04-16T06:53:55;31.33;;;14.90;;
73869;SDS011;64924;42.140;24.762;2023-04-16T06:56:21;24.48;;;9.93;;
73869;SDS011;64924;42.140;24.762;2023-04-16T06:58:46;18.85;;;6.30;;
73869;SDS011;64924;42.140;24.762;2023-04-16T07:01:12;31.63;;;12.73;;
73869;SDS011;64924;42.140;24.762;2023-04-16T07:03:37;9.82;;;3.40;;
73869;SDS011;64924;42.140;24.762;2023-04-16T07:06:03;8.68;;;2.95;;
73869;SDS011;64924;42.140;24.762;2023-04-16T07:08:28;8.98;;;3.63;;
73869;SDS011;64924;42.140;24.762;2023-04-16T07:10:54;14.10;;;5.50;;
73869;SDS011;64924;42.140;24.762;2023-04-16T07:13:19;11.50;;;4.82;;
73869;SDS011;64924;42.140;24.762;2023-04-16T07:15:45;7.88;;;2.90;;
73869;SDS011;64924;42.140;24.762;2023-04-16T07:18:11;8.70;;;2.63;;
73869;SDS011;64924;42.140;24.762;2023-04-16T07:20:36;7.15;;;2.97;;
73869;SDS011;64924;42.140;24.762;2023-04-16T07:23:02;8.07;;;2.88;;
73869;SDS011;64924;42.140;24.762;2023-04-16T07:25:27;18.42;;;4.40;;
73869;SDS011;64924;42.140;24.762;2023-04-16T07:27:53;7.65;;;2.90;;
73869;SDS011;64924;42.140;24.762;2023-04-16T07:30:18;9.07;;;3.08;;
73869;SDS011;64924;42.140;24.762;2023-04-16T07:32:44;6.93;;;2.78;;
73869;SDS011;64924;42.140;24.762;2023-04-16T07:35:10;8.52;;;2.90;;
73869;SDS011;64924;42.140;24.762;2023-04-16T07:37:35;6.75;;;3.00;;
73869;SDS011;64924;42.140;24.762;2023-04-16T07:40:01;5.80;;;2.70;;
73869;SDS011;64924;42.140;24.762;2023-04-16T07:42:26;6.38;;;2.83;;
73869;SDS011;64924;42.140;24.762;2023-04-16T07:44:52;9.75;;;2.92;;
73869;SDS011;64924;42.140;24.762;2023-04-16T07:47:18;5.65;;;2.22;;
73869;SDS011;64924;42.140;24.762;2023-04-16T07:49:44;5.63;;;2.33;;
73869;SDS011;64924;42.140;24.762;2023-04-16T07:52:09;8.32;;;2.95;;
73869;SDS011;64924;42.140;24.762;2023-04-16T07:54:35;6.10;;;2.50;;
73869;SDS011;64924;42.140;24.762;2023-04-16T07:57:00;5.38;;;2.60;;
73869;SDS011;64924;42.140;24.762;2023-04-16T07:59:26;5.68;;;2.38;;
73869;SDS011;64924;42.140;24.762;2023-04-16T08:01:51;7.18;;;2.60;;
73869;SDS011;64924;42.140;24.762;2023-04-16T08:04:18;9.07;;;2.70;;
73869;SDS011;64924;42.140;24.762;2023-04-16T08:06:48;8.07;;;2.90;;
73869;SDS011;64924;42.140;24.762;2023-04-16T08:09:17;7.82;;;2.97;;
73869;SDS011;64924;42.140;24.762;2023-04-16T08:11:44;11.10;;;3.47;;
73869;SDS011;64924;42.140;24.762;2023-04-16T08:14:10;7.45;;;3.13;;
73869;SDS011;64924;42.140;24.762;2023-04-16T08:16:35;7.78;;;3.22;;
73869;SDS011;64924;42.140;24.762;2023-04-16T08:19:01;9.45;;;3.58;;
73869;SDS011;64924;42.140;24.762;2023-04-16T08:21:26;8.60;;;3.42;;
73869;SDS011;64924;42.140;24.762;2023-04-16T08:23:52;10.18;;;3.10;;
73869;SDS011;64924;42.140;24.762;2023-04-16T08:26:18;9.18;;;3.72;;
73869;SDS011;64924;42.140;24.762;2023-04-16T08:28:44;8.57;;;3.40;;
73869;SDS011;64924;42.140;24.762;2023-04-16T08:31:10;10.18;;;3.40;;
73869;SDS011;64924;42.140;24.762;2023-04-16T08:33:35;7.50;;;3.15;;
73869;SDS011;64924;42.140;24.762;2023-04-16T08:36:01;8.45;;;4.53;;
73869;SDS011;64924;42.140;24.762;2023-04-16T08:38:26;7.60;;;3.15;;
73869;SDS011;64924;42.140;24.762;2023-04-16T08:40:52;9.15;;;3.22;;
73869;SDS011;64924;42.140;24.762;2023-04-16T08:43:19;7.28;;;3.22;;
73869;SDS011;64924;42.140;24.762;2023-04-16T08:45:48;7.40;;;3.17;;
73869;SDS011;64924;42.140;24.762;2023-04-16T08:48:14;12.23;;;4.18;;
73869;SDS011;64924;42.140;24.762;2023-04-16T08:50:40;10.95;;;4.10;;
73869;SDS011;64924;42.140;24.762;2023-04-16T08:53:09;11.68;;;3.47;;
73869;SDS011;64924;42.140;24.762;2023-04-16T08:55:36;9.32;;;3.50;;
73869;SDS011;64924;42.140;24.762;2023-04-16T08:58:13;8.32;;;4.05;;
73869;SDS011;64924;42.140;24.762;2023-04-16T09:00:53;9.05;;;3.90;;
73869;SDS011;64924;42.140;24.762;2023-04-16T09:03:19;7.25;;;3.58;;
73869;SDS011;64924;42.140;24.762;2023-04-16T09:05:46;9.60;;;3.60;;
73869;SDS011;64924;42.140;24.762;2023-04-16T09:08:13;11.07;;;3.63;;
73869;SDS011;64924;42.140;24.762;2023-04-16T09:10:39;8.63;;;3.60;;
73869;SDS011;64924;42.140;24.762;2023-04-16T09:13:05;8.23;;;3.72;;
73869;SDS011;64924;42.140;24.762;2023-04-16T09:15:33;14.50;;;5.28;;
73869;SDS011;64924;42.140;24.762;2023-04-16T09:17:59;10.60;;;4.07;;
73869;SDS011;64924;42.140;24.762;2023-04-16T09:20:25;6.60;;;3.22;;
73869;SDS011;64924;42.140;24.762;2023-04-16T09:22:50;5.35;;;3.00;;
73869;SDS011;64924;42.140;24.762;2023-04-16T09:25:16;6.13;;;2.55;;
73869;SDS011;64924;42.140;24.762;2023-04-16T09:27:43;6.35;;;3.15;;
73869;SDS011;64924;42.140;24.762;2023-04-16T09:30:21;8.80;;;3.10;;
73869;SDS011;64924;42.140;24.762;2023-04-16T09:35:17;6.10;;;2.60;;
73869;SDS011;64924;42.140;24.762;2023-04-16T09:37:46;6.80;;;3.08;;
73869;SDS011;64924;42.140;24.762;2023-04-16T09:40:25;6.15;;;2.50;;
73869;SDS011;64924;42.140;24.762;2023-04-16T09:42:51;6.13;;;2.53;;
73869;SDS011;64924;42.140;24.762;2023-04-16T09:45:20;5.40;;;2.50;;
73869;SDS011;64924;42.140;24.762;2023-04-16T09:47:46;6.65;;;2.72;;
73869;SDS011;64924;42.140;24.762;2023-04-16T09:50:15;11.35;;;3.22;;
73869;SDS011;64924;42.140;24.762;2023-04-16T09:52:42;6.13;;;2.80;;
73869;SDS011;64924;42.140;24.762;2023-04-16T09:55:09;6.15;;;3.05;;
73869;SDS011;64924;42.140;24.762;2023-04-16T09:57:36;6.45;;;2.78;;
73869;SDS011;64924;42.140;24.762;2023-04-16T10:00:03;8.25;;;2.97;;
73869;SDS011;64924;42.140;24.762;2023-04-16T10:02:30;4.25;;;2.10;;
73869;SDS011;64924;42.140;24.762;2023-04-16T10:04:59;7.38;;;2.70;;
73869;SDS011;64924;42.140;24.762;2023-04-16T10:07:27;5.18;;;2.20;;
73869;SDS011;64924;42.140;24.762;2023-04-16T10:09:53;5.22;;;2.30;;
73869;SDS011;64924;42.140;24.762;2023-04-16T10:12:20;6.57;;;2.42;;
73869;SDS011;64924;42.140;24.762;2023-04-16T10:14:45;8.57;;;2.70;;
73869;SDS011;64924;42.140;24.762;2023-04-16T10:17:11;4.85;;;2.38;;
73869;SDS011;64924;42.140;24.762;2023-04-16T10:19:37;5.97;;;2.35;;
73869;SDS011;64924;42.140;24.762;2023-04-16T10:22:03;8.18;;;2.40;;
73869;SDS011;64924;42.140;24.762;2023-04-16T10:24:30;4.13;;;2.25;;
73869;SDS011;64924;42.140;24.762;2023-04-16T10:26:57;4.95;;;2.88;;
73869;SDS011;64924;42.140;24.762;2023-04-16T10:29:24;5.68;;;2.03;;
73869;SDS011;64924;42.140;24.762;2023-04-16T10:31:51;7.22;;;2.20;;
73869;SDS011;64924;42.140;24.762;2023-04-16T10:34:19;7.97;;;3.10;;
73869;SDS011;64924;42.140;24.762;2023-04-16T10:36:48;6.13;;;2.58;;
73869;SDS011;64924;42.140;24.762;2023-04-16T10:39:18;5.68;;;2.70;;
73869;SDS011;64924;42.140;24.762;2023-04-16T10:41:45;8.85;;;2.85;;
73869;SDS011;64924;42.140;24.762;2023-04-16T10:44:11;7.53;;;2.80;;
73869;SDS011;64924;42.140;24.762;2023-04-16T10:46:37;5.43;;;2.22;;
73869;SDS011;64924;42.140;24.762;2023-04-16T10:51:39;8.48;;;2.75;;
73869;SDS011;64924;42.140;24.762;2023-04-16T10:56:36;5.38;;;2.10;;
73869;SDS011;64924;42.140;24.762;2023-04-16T10:59:07;9.00;;;2.53;;
73869;SDS011;64924;42.140;24.762;2023-04-16T11:01:35;7.60;;;2.75;;
73869;SDS011;64924;42.140;24.762;2023-04-16T11:12:36;5.25;;;2.30;;
73869;SDS011;64924;42.140;24.762;2023-04-16T11:15:07;9.00;;;2.88;;
73869;SDS011;64924;42.140;24.762;2023-04-16T11:17:50;10.93;;;2.50;;
73869;SDS011;64924;42.140;24.762;2023-04-16T11:22:44;6.45;;;2.42;;
73869;SDS011;64924;42.140;24.762;2023-04-16T11:25:10;10.68;;;2.95;;
73869;SDS011;64924;42.140;24.762;2023-04-16T11:27:36;9.98;;;3.22;;
73869;SDS011;64924;42.140;24.762;2023-04-16T11:32:31;9.02;;;3.17;;
73869;SDS011;64924;42.140;24.762;2023-04-16T11:35:02;6.93;;;2.95;;
73869;SDS011;64924;42.140;24.762;2023-04-16T11:37:41;8.90;;;3.45;;
73869;SDS011;64924;42.140;24.762;2023-04-16T11:40:07;10.25;;;3.30;;
73869;SDS011;64924;42.140;24.762;2023-04-16T11:42:36;7.75;;;3.10;;
73869;SDS011;64924;42.140;24.762;2023-04-16T11:45:09;10.02;;;3.58;;
73869;SDS011;64924;42.140;24.762;2023-04-16T11:50:25;10.32;;;3.15;;
73869;SDS011;64924;42.140;24.762;2023-04-16T11:52:53;12.90;;;3.90;;
73869;SDS011;64924;42.140;24.762;2023-04-16T11:55:20;11.25;;;3.30;;
73869;SDS011;64924;42.140;24.762;2023-04-16T11:57:46;15.52;;;3.70;;
73869;SDS011;64924;42.140;24.762;2023-04-16T12:00:12;14.95;;;3.70;;
73869;SDS011;64924;42.140;24.762;2023-04-16T12:08:06;12.20;;;3.90;;
73869;SDS011;64924;42.140;24.762;2023-04-16T12:10:34;11.85;;;3.50;;
73869;SDS011;64924;42.140;24.762;2023-04-16T12:13:13;10.68;;;3.33;;
73869;SDS011;64924;42.140;24.762;2023-04-16T12:15:47;7.93;;;2.40;;
73869;SDS011;64924;42.140;24.762;2023-04-16T12:18:13;10.35;;;3.17;;
73869;SDS011;64924;42.140;24.762;2023-04-16T12:20:40;7.68;;;3.15;;
73869;SDS011;64924;42.140;24.762;2023-04-16T12:23:06;7.43;;;3.30;;
73869;SDS011;64924;42.140;24.762;2023-04-16T12:25:35;11.35;;;3.25;;
73869;SDS011;64924;42.140;24.762;2023-04-16T12:28:01;9.00;;;3.83;;
73869;SDS011;64924;42.140;24.762;2023-04-16T12:30:27;10.13;;;3.85;;
73869;SDS011;64924;42.140;24.762;2023-04-16T12:33:12;14.43;;;4.35;;
73869;SDS011;64924;42.140;24.762;2023-04-16T12:35:39;13.20;;;3.72;;
73869;SDS011;64924;42.140;24.762;2023-04-16T12:38:06;12.63;;;3.70;;
73869;SDS011;64924;42.140;24.762;2023-04-16T12:40:32;11.65;;;3.85;;
73869;SDS011;64924;42.140;24.762;2023-04-16T12:42:58;8.75;;;3.95;;
73869;SDS011;64924;42.140;24.762;2023-04-16T12:45:23;9.38;;;4.30;;
73869;SDS011;64924;42.140;24.762;2023-04-16T12:47:49;18.02;;;5.53;;
73869;SDS011;64924;42.140;24.762;2023-04-16T12:50:15;15.52;;;4.57;;
73869;SDS011;64924;42.140;24.762;2023-04-16T12:52:41;12.23;;;4.45;;
73869;SDS011;64924;42.140;24.762;2023-04-16T12:55:07;9.23;;;3.70;;
73869;SDS011;64924;42.140;24.762;2023-04-16T12:57:33;9.23;;;3.20;;
73869;SDS011;64924;42.140;24.762;2023-04-16T12:59:59;11.27;;;3.70;;
73869;SDS011;64924;42.140;24.762;2023-04-16T13:02:24;10.02;;;4.00;;
73869;SDS011;64924;42.140;24.762;2023-04-16T13:04:50;7.68;;;2.97;;
73869;SDS011;64924;42.140;24.762;2023-04-16T13:07:16;8.85;;;3.17;;
73869;SDS011;64924;42.140;24.762;2023-04-16T13:09:42;12.13;;;4.32;;
73869;SDS011;64924;42.140;24.762;2023-04-16T13:12:08;10.48;;;3.78;;
73869;SDS011;64924;42.140;24.762;2023-04-16T13:14:33;12.63;;;3.83;;
73869;SDS011;64924;42.140;24.762;2023-04-16T13:16:59;9.15;;;2.95;;
73869;SDS011;64924;42.140;24.762;2023-04-16T13:19:25;6.72;;;2.80;;
73869;SDS011;64924;42.140;24.762;2023-04-16T13:21:50;5.40;;;2.60;;
73869;SDS011;64924;42.140;24.762;2023-04-16T13:24:16;8.63;;;2.30;;
73869;SDS011;64924;42.140;24.762;2023-04-16T13:26:41;9.57;;;3.10;;
73869;SDS011;64924;42.140;24.762;2023-04-16T13:29:07;7.15;;;2.10;;
73869;SDS011;64924;42.140;24.762;2023-04-16T13:31:33;5.63;;;2.30;;
73869;SDS011;64924;42.140;24.762;2023-04-16T13:33:59;4.43;;;2.28;;
73869;SDS011;64924;42.140;24.762;2023-04-16T13:36:25;6.38;;;3.30;;
73869;SDS011;64924;42.140;24.762;2023-04-16T13:38:51;6.95;;;2.70;;
73869;SDS011;64924;42.140;24.762;2023-04-16T13:41:17;8.30;;;3.00;;
73869;SDS011;64924;42.140;24.762;2023-04-16T13:43:42;6.82;;;3.38;;
73869;SDS011;64924;42.140;24.762;2023-04-16T13:46:07;7.03;;;2.67;;
73869;SDS011;64924;42.140;24.762;2023-04-16T13:48:33;6.70;;;2.63;;
73869;SDS011;64924;42.140;24.762;2023-04-16T13:50:58;6.82;;;2.78;;
73869;SDS011;64924;42.140;24.762;2023-04-16T13:53:24;5.35;;;2.28;;
73869;SDS011;64924;42.140;24.762;2023-04-16T13:55:49;4.63;;;2.13;;
73869;SDS011;64924;42.140;24.762;2023-04-16T13:58:15;8.30;;;2.60;;
73869;SDS011;64924;42.140;24.762;2023-04-16T14:00:41;5.60;;;3.00;;
73869;SDS011;64924;42.140;24.762;2023-04-16T14:03:07;7.22;;;2.85;;
73869;SDS011;64924;42.140;24.762;2023-04-16T14:05:32;7.53;;;3.05;;
73869;SDS011;64924;42.140;24.762;2023-04-16T14:07:58;5.93;;;2.75;;
73869;SDS011;64924;42.140;24.762;2023-04-16T14:10:24;7.75;;;2.78;;
73869;SDS011;64924;42.140;24.762;2023-04-16T14:12:49;12.27;;;3.30;;
73869;SDS011;64924;42.140;24.762;2023-04-16T14:15:15;8.55;;;4.07;;
73869;SDS011;64924;42.140;24.762;2023-04-16T14:17:41;7.50;;;3.50;;
73869;SDS011;64924;42.140;24.762;2023-04-16T14:20:08;10.05;;;3.80;;
73869;SDS011;64924;42.140;24.762;2023-04-16T14:22:38;10.10;;;3.08;;
73869;SDS011;64924;42.140;24.762;2023-04-16T14:25:04;10.68;;;3.75;;
73869;SDS011;64924;42.140;24.762;2023-04-16T14:27:30;11.18;;;4.28;;
73869;SDS011;64924;42.140;24.762;2023-04-16T14:29:56;6.90;;;3.63;;
73869;SDS011;64924;42.140;24.762;2023-04-16T14:32:22;14.02;;;3.95;;
73869;SDS011;64924;42.140;24.762;2023-04-16T14:34:47;9.77;;;3.75;;
73869;SDS011;64924;42.140;24.762;2023-04-16T14:37:14;15.35;;;3.92;;
73869;SDS011;64924;42.140;24.762;2023-04-16T14:39:40;8.93;;;3.53;;
73869;SDS011;64924;42.140;24.762;2023-04-16T14:42:06;14.88;;;4.45;;
73869;SDS011;64924;42.140;24.762;2023-04-16T14:44:31;9.35;;;3.17;;
73869;SDS011;64924;42.140;24.762;2023-04-16T14:46:57;9.90;;;3.47;;
73869;SDS011;64924;42.140;24.762;2023-04-16T14:49:22;8.73;;;3.20;;
73869;SDS011;64924;42.140;24.762;2023-04-16T14:51:50;10.93;;;4.00;;
73869;SDS011;64924;42.140;24.762;2023-04-16T14:54:16;13.38;;;3.47;;